Disclaimer

Please do not use the information listed here in-flight or in-navigation, as they are not provided to us by the airports but are provided by volunteers, so they might be outdated.

Search


Regions


Airport information page

Radio informations:
Tower (TWR) - 118.1 MHz

Airport informations:
Latitude: 14° 30' 46.09" N
Longitude: 004° 04' 46.42" W
Elevation: 906 feet - 276 meters
Operating hours: Remarks
Operating agency: Military-civil joint use airport
Timezone: UTC 0
Fuel: Jet A, without icing inhibitor.

100/130 octane gasoline, leaded, MIL-L-5572F (GREEN)

Runway information:
05/23 - 8340 x 94 feet< - >2542 x 29 meters

Recent METARs:
GAMB 160600Z 02004KT CAVOK 17/03 Q1017
GAMB 160600Z 02004KT CAVOK 17/03 Q1017
GAMB 160900Z 02008KT CAVOK 24/01 Q1018

Airport on the map: